Time;durP1;ratioP1;P1;durP2;ratioP2;P2;SDS_P1;SDS_P2;PMS_P1;PMS_P2;Temp;Humidity;BMP_temperature;BMP_pressure;BME280_temperature;BME280_humidity;BME280_pressure;Samples;Min_cycle;Max_cycle;Signal;HPM_P1;HPM_P2
2021/07/31 00:00:44;;;;;;;6.37;5.00;;;;;;;15.96;100.00;99772.88;4998144;28;20563;-75
2021/07/31 00:03:12;;;;;;;7.03;5.00;;;;;;;15.95;100.00;99768.53;4999894;28;20216;-74
2021/07/31 00:05:38;;;;;;;7.00;5.00;;;;;;;16.03;100.00;99771.53;5001290;28;20204;-75
2021/07/31 00:08:05;;;;;;;7.00;4.87;;;;;;;16.08;100.00;99773.91;4998573;28;20702;-75
2021/07/31 00:10:31;;;;;;;4.93;4.43;;;;;;;16.07;100.00;99767.78;5001512;28;20212;-75
2021/07/31 00:12:58;;;;;;;7.23;4.90;;;;;;;16.16;100.00;99765.53;4996359;28;20232;-74
2021/07/31 00:15:24;;;;;;;6.07;4.90;;;;;;;16.17;100.00;99767.22;5006227;28;20231;-75
2021/07/31 00:17:51;;;;;;;5.37;4.60;;;;;;;16.18;100.00;99763.63;4996785;28;20242;-75
2021/07/31 00:20:18;;;;;;;5.40;4.83;;;;;;;16.19;100.00;99765.34;5003089;28;20583;-75
2021/07/31 00:22:45;;;;;;;4.60;4.10;;;;;;;16.14;100.00;99764.78;4994558;28;20314;-74
2021/07/31 00:25:11;;;;;;;5.43;4.50;;;;;;;16.07;100.00;99767.78;5002846;28;20526;-75
2021/07/31 00:27:38;;;;;;;5.10;4.60;;;;;;;16.11;100.00;99763.16;4994378;28;20244;-75
2021/07/31 00:30:05;;;;;;;5.37;4.40;;;;;;;16.08;100.00;99768.63;5003757;28;20204;-75
2021/07/31 00:32:31;;;;;;;9.37;5.00;;;;;;;16.13;100.00;99769.19;4997470;28;20211;-74
2021/07/31 00:34:58;;;;;;;5.67;4.80;;;;;;;16.08;100.00;99769.47;5001599;28;20301;-74
2021/07/31 00:37:26;;;;;;;6.10;4.47;;;;;;;16.02;100.00;99763.75;4997320;28;20319;-74
2021/07/31 00:39:53;;;;;;;7.47;4.73;;;;;;;15.98;100.00;99757.84;5000051;28;20748;-75
2021/07/31 00:42:20;;;;;;;5.17;4.67;;;;;;;15.99;100.00;99764.81;4994737;28;20211;-74
2021/07/31 00:44:46;;;;;;;6.87;4.30;;;;;;;15.95;100.00;99765.91;4983604;28;20229;-75
2021/07/31 00:47:13;;;;;;;8.27;4.80;;;;;;;15.90;100.00;99773.25;5002923;28;20322;-74
2021/07/31 00:49:39;;;;;;;5.20;4.43;;;;;;;15.89;100.00;99764.50;5017459;23;20655;-73
2021/07/31 00:52:07;;;;;;;7.50;4.07;;;;;;;15.79;100.00;99762.56;4984249;28;20215;-73
2021/07/31 00:54:35;;;;;;;6.70;4.70;;;;;;;15.85;100.00;99754.31;4983951;28;20686;-73
2021/07/31 00:57:02;;;;;;;5.30;4.03;;;;;;;15.80;100.00;99759.84;4984341;28;20207;-73
2021/07/31 00:59:37;;;;;;;6.53;4.40;;;;;;;15.80;100.00;99756.38;4983664;28;20707;-73
2021/07/31 01:02:04;;;;;;;5.23;4.53;;;;;;;15.86;100.00;99763.84;5001650;28;20615;-73
2021/07/31 01:04:30;;;;;;;5.80;4.77;;;;;;;15.94;100.00;99768.66;4996362;28;20204;-73
2021/07/31 01:06:57;;;;;;;6.43;4.70;;;;;;;15.97;100.00;99774.56;5003525;28;20250;-73
2021/07/31 01:09:23;;;;;;;5.37;4.33;;;;;;;15.98;100.00;99776.25;4974529;28;20223;-72
2021/07/31 01:11:51;;;;;;;4.83;4.30;;;;;;;16.04;100.00;99775.88;4985587;28;20211;-73
2021/07/31 01:14:18;;;;;;;6.87;4.53;;;;;;;16.06;100.00;99779.25;4984582;28;20222;-73
2021/07/31 01:16:46;;;;;;;5.10;4.60;;;;;;;16.14;100.00;99777.94;5000588;28;20200;-73
2021/07/31 01:19:12;;;;;;;5.03;4.30;;;;;;;16.13;100.00;99777.09;4998890;28;20227;-73
2021/07/31 01:21:42;;;;;;;6.83;4.67;;;;;;;16.16;100.00;99781.28;5001877;28;20255;-73
2021/07/31 01:24:26;;;;;;;5.90;4.67;;;;;;;16.14;100.00;99778.75;4999263;28;20599;-73
2021/07/31 01:26:53;;;;;;;4.93;4.37;;;;;;;16.21;100.00;99781.84;4999705;28;20213;-73
2021/07/31 01:29:21;;;;;;;4.67;4.17;;;;;;;16.20;100.00;99773.13;5000747;28;20224;-73
2021/07/31 01:31:48;;;;;;;5.93;4.37;;;;;;;16.15;100.00;99779.63;5000262;28;20641;-73
2021/07/31 01:34:15;;;;;;;6.87;4.30;;;;;;;16.13;100.00;99770.97;5000952;28;20215;-73
2021/07/31 01:36:43;;;;;;;5.10;3.90;;;;;;;16.16;100.00;99766.34;4995858;28;20647;-73
2021/07/31 01:39:13;;;;;;;5.43;4.47;;;;;;;16.15;100.00;99774.38;5002857;28;20322;-73
2021/07/31 01:41:41;;;;;;;4.80;4.30;;;;;;;16.09;99.31;99767.69;4997856;28;20677;-73
2021/07/31 01:44:08;;;;;;;6.23;4.70;;;;;;;16.11;100.00;99767.59;5003039;28;20200;-73
2021/07/31 01:46:35;;;;;;;6.47;4.07;;;;;;;16.17;100.00;99764.59;4998100;28;20216;-73
2021/07/31 01:49:02;;;;;;;5.67;4.83;;;;;;;16.09;100.00;99776.44;5002945;28;20291;-73
2021/07/31 01:51:35;;;;;;;5.90;4.60;;;;;;;16.10;100.00;99772.00;4979940;28;20220;-73
2021/07/31 01:54:04;;;;;;;5.77;4.03;;;;;;;16.15;100.00;99774.38;5003006;28;20337;-73
2021/07/31 01:56:31;;;;;;;5.20;4.40;;;;;;;16.21;100.00;99776.59;4995385;28;20217;-73
2021/07/31 01:58:58;;;;;;;5.67;4.27;;;;;;;16.27;100.00;99768.34;5001802;28;20232;-73
2021/07/31 02:01:26;;;;;;;6.87;4.23;;;;;;;16.28;100.00;99780.53;4982510;28;20259;-73
2021/07/31 02:03:55;;;;;;;5.37;4.30;;;;;;;16.28;100.00;99768.22;4986328;28;21721;-73
2021/07/31 02:06:27;;;;;;;6.13;4.00;;;;;;;16.28;99.61;99772.63;4997426;28;20577;-73
2021/07/31 02:08:54;;;;;;;6.27;4.03;;;;;;;16.34;99.98;99779.28;5000611;28;20225;-73
2021/07/31 02:11:24;;;;;;;7.20;4.50;;;;;;;16.38;99.83;99776.38;4998635;28;20296;-73
2021/07/31 02:13:58;;;;;;;5.40;4.43;;;;;;;16.38;99.41;99779.00;4997719;28;20578;-73
2021/07/31 02:16:28;;;;;;;6.20;4.40;;;;;;;16.41;99.37;99783.22;4982366;28;20275;-73
2021/07/31 02:18:58;;;;;;;6.90;4.27;;;;;;;16.40;97.96;99787.63;4982399;28;20252;-73
2021/07/31 02:21:34;;;;;;;6.37;4.30;;;;;;;16.46;99.30;99789.03;4987796;28;20212;-73
2021/07/31 02:24:22;;;;;;;5.37;4.23;;;;;;;16.42;97.40;99777.84;4997645;28;20580;-73
2021/07/31 02:27:08;;;;;;;7.20;4.37;;;;;;;16.46;98.34;99783.75;5006735;28;20708;-73
2021/07/31 02:29:47;;;;;;;5.87;3.80;;;;;;;16.44;98.39;99785.66;4983667;28;20231;-73
2021/07/31 02:32:15;;;;;;;7.03;4.33;;;;;;;16.36;97.95;99788.78;5005291;28;20220;-73
2021/07/31 02:34:42;;;;;;;8.27;4.00;;;;;;;16.31;97.05;99792.66;5001172;28;20242;-73
2021/07/31 02:37:09;;;;;;;5.23;3.83;;;;;;;16.26;97.25;99791.13;5003086;28;20213;-73
2021/07/31 02:39:39;;;;;;;4.83;4.13;;;;;;;16.24;97.61;99789.56;5001372;28;20312;-73
2021/07/31 02:42:05;;;;;;;5.97;4.43;;;;;;;16.26;98.53;99790.31;5003871;28;20218;-73
2021/07/31 02:44:41;;;;;;;7.70;4.47;;;;;;;16.22;98.52;99791.44;4985403;28;20219;-73
2021/07/31 02:47:10;;;;;;;6.10;4.20;;;;;;;16.20;97.83;99795.94;4986034;28;20212;-73
2021/07/31 02:49:40;;;;;;;6.93;4.10;;;;;;;16.20;98.66;99794.16;5005359;28;20244;-73
2021/07/31 02:52:08;;;;;;;6.83;4.40;;;;;;;16.17;98.27;99788.25;4986391;28;20802;-73
2021/07/31 02:54:42;;;;;;;7.90;4.40;;;;;;;16.14;99.34;99780.56;5003960;28;20208;-73
2021/07/31 02:57:09;;;;;;;7.33;4.27;;;;;;;16.08;98.53;99787.03;4998713;28;20217;-73
2021/07/31 02:59:36;;;;;;;5.43;4.37;;;;;;;16.05;100.00;99780.19;5007831;28;20321;-73
2021/07/31 03:02:06;;;;;;;5.60;4.40;;;;;;;15.95;98.17;99796.63;4985926;28;20218;-73
2021/07/31 03:04:36;;;;;;;6.30;4.33;;;;;;;15.90;98.53;99797.75;4987597;28;20986;-73
2021/07/31 03:07:16;;;;;;;5.23;4.47;;;;;;;15.86;98.82;99792.78;4999793;28;20224;-73
2021/07/31 03:09:42;;;;;;;6.67;4.70;;;;;;;15.79;98.65;99794.94;5002642;28;20232;-73
2021/07/31 03:12:09;;;;;;;6.63;5.00;;;;;;;15.79;99.40;99791.47;4985140;28;20295;-73
2021/07/31 03:14:37;;;;;;;5.27;4.43;;;;;;;15.80;100.00;99794.00;5007800;28;20208;-73
2021/07/31 03:17:04;;;;;;;5.30;4.17;;;;;;;15.67;98.15;99798.25;4988410;28;20698;-73
2021/07/31 03:19:32;;;;;;;6.17;4.57;;;;;;;15.61;98.08;99812.63;4989232;28;20665;-73
2021/07/31 03:21:59;;;;;;;5.27;4.23;;;;;;;15.61;98.69;99806.53;4983948;28;20201;-73
2021/07/31 03:24:34;;;;;;;5.70;4.57;;;;;;;15.60;98.30;99805.69;4983278;28;20206;-73
2021/07/31 03:27:02;;;;;;;5.37;4.40;;;;;;;15.64;99.31;99801.09;4992326;28;20251;-73
2021/07/31 03:29:49;;;;;;;5.80;4.47;;;;;;;15.64;99.43;99812.44;5000254;28;20827;-73
2021/07/31 03:32:15;;;;;;;5.67;4.50;;;;;;;15.60;99.51;99815.34;5002704;28;20216;-73
2021/07/31 03:34:43;;;;;;;6.50;4.63;;;;;;;15.61;100.00;99819.66;5000217;28;20210;-73
2021/07/31 03:37:10;;;;;;;6.67;4.87;;;;;;;15.62;100.00;99824.84;5003812;28;20240;-73
2021/07/31 03:39:38;;;;;;;7.90;4.60;;;;;;;15.61;100.00;99831.00;4979887;28;20307;-73
2021/07/31 03:42:06;;;;;;;7.00;4.70;;;;;;;15.59;99.01;99832.06;5004826;28;20207;-73
2021/07/31 03:44:33;;;;;;;6.97;4.53;;;;;;;15.66;100.00;99828.97;4987706;28;20200;-73
2021/07/31 03:46:59;;;;;;;6.30;4.80;;;;;;;15.65;98.84;99827.25;4993060;28;20207;-73
2021/07/31 03:49:26;;;;;;;6.47;4.90;;;;;;;15.76;100.00;99823.19;4998966;28;20308;-73
2021/07/31 03:51:55;;;;;;;5.90;4.50;;;;;;;15.78;99.04;99831.84;5003447;28;20757;-73
2021/07/31 03:54:23;;;;;;;6.37;4.57;;;;;;;15.85;97.03;99841.03;4985814;28;20638;-73
2021/07/31 03:56:49;;;;;;;5.90;4.40;;;;;;;15.94;97.90;99840.47;4985931;28;20321;-73
2021/07/31 03:59:25;;;;;;;7.23;4.73;;;;;;;16.06;96.01;99852.03;4999626;28;20556;-73
2021/07/31 04:01:54;;;;;;;7.77;4.63;;;;;;;16.16;95.17;99847.03;4998633;28;20274;-73
2021/07/31 04:04:22;;;;;;;6.07;4.10;;;;;;;16.23;95.28;99850.97;5000585;28;20226;-73
2021/07/31 04:06:49;;;;;;;4.70;3.90;;;;;;;16.29;93.88;99855.88;4984170;28;20205;-73
2021/07/31 04:09:35;;;;;;;5.33;4.17;;;;;;;16.32;92.99;99855.66;5002151;28;20514;-73
2021/07/31 04:12:20;;;;;;;5.30;4.40;;;;;;;16.35;93.54;99852.84;4995729;28;20216;-73
2021/07/31 04:15:11;;;;;;;4.70;3.73;;;;;;;16.37;92.66;99856.22;4979731;28;20212;-73
2021/07/31 04:17:38;;;;;;;6.73;4.40;;;;;;;16.38;92.65;99857.09;4998975;28;20213;-73
2021/07/31 04:20:06;;;;;;;4.70;3.70;;;;;;;16.39;92.22;99861.38;4982450;28;20686;-73
2021/07/31 04:22:34;;;;;;;7.00;3.80;;;;;;;16.42;92.13;99869.94;4982845;28;20284;-73
2021/07/31 04:25:03;;;;;;;5.20;3.90;;;;;;;16.45;92.09;99864.50;4999759;28;20598;-73
2021/07/31 04:27:31;;;;;;;7.37;4.27;;;;;;;16.57;91.56;99869.91;5002124;28;20734;-73
2021/07/31 04:29:57;;;;;;;6.10;4.00;;;;;;;16.70;91.19;99877.88;5000852;28;20220;-73
2021/07/31 04:32:23;;;;;;;5.30;4.30;;;;;;;16.82;90.45;99888.47;4999564;28;20290;-73
2021/07/31 04:34:50;;;;;;;5.20;4.17;;;;;;;16.98;89.95;99882.25;4998248;28;20212;-73
2021/07/31 04:37:16;;;;;;;4.97;4.00;;;;;;;17.10;88.13;99881.47;4999180;28;20228;-73
2021/07/31 04:39:43;;;;;;;5.00;4.03;;;;;;;17.25;87.91;99884.88;4995833;28;20714;-73
2021/07/31 04:42:10;;;;;;;5.20;3.90;;;;;;;17.34;87.63;99886.06;5002377;28;20215;-73
2021/07/31 04:44:37;;;;;;;6.13;3.67;;;;;;;17.44;87.23;99887.16;4980483;28;20213;-73
2021/07/31 04:47:04;;;;;;;4.70;3.80;;;;;;;17.50;87.08;99892.03;5009123;28;20729;-73
2021/07/31 04:49:30;;;;;;;4.83;3.57;;;;;;;17.46;85.53;99894.94;4996730;28;20230;-73
2021/07/31 04:51:57;;;;;;;6.37;3.67;;;;;;;17.47;85.59;99900.13;5005885;28;20569;-73
2021/07/31 04:54:23;;;;;;;4.47;3.47;;;;;;;17.53;85.56;99898.88;4997835;28;20239;-74
2021/07/31 04:56:49;;;;;;;4.50;3.57;;;;;;;17.65;84.41;99895.41;5007414;28;20252;-73
2021/07/31 04:59:17;;;;;;;9.40;3.83;;;;;;;17.74;85.70;99893.94;4996576;28;20224;-73
2021/07/31 05:01:43;;;;;;;8.63;3.40;;;;;;;17.85;83.88;99906.41;5001043;28;20227;-73
2021/07/31 05:04:10;;;;;;;4.17;3.70;;;;;;;17.93;83.29;99904.97;4997428;28;20208;-73
2021/07/31 05:06:38;;;;;;;7.00;3.87;;;;;;;17.97;81.49;99910.88;5003178;28;20201;-73
2021/07/31 05:09:05;;;;;;;4.03;3.37;;;;;;;17.98;81.86;99913.41;4997510;28;20224;-74
2021/07/31 05:11:31;;;;;;;5.43;3.30;;;;;;;17.99;81.83;99914.25;4999853;28;20637;-74
2021/07/31 05:13:58;;;;;;;4.80;3.37;;;;;;;17.94;80.52;99919.84;4995959;28;20203;-73
2021/07/31 05:16:28;;;;;;;4.13;3.07;;;;;;;17.92;80.50;99924.38;5002990;28;20228;-74
2021/07/31 05:18:54;;;;;;;4.80;2.90;;;;;;;17.90;79.75;99922.78;4986146;28;20598;-74
2021/07/31 05:21:21;;;;;;;3.13;2.60;;;;;;;17.87;80.08;99926.50;5004734;28;20205;-73
2021/07/31 05:23:48;;;;;;;5.43;3.00;;;;;;;17.96;79.30;99931.13;4980796;28;20611;-73
2021/07/31 05:26:14;;;;;;;4.63;2.83;;;;;;;18.14;79.86;99933.47;4998766;28;20230;-73
2021/07/31 05:28:40;;;;;;;3.93;2.93;;;;;;;18.29;78.23;99929.78;4998253;28;20231;-73
2021/07/31 05:31:07;;;;;;;2.90;2.50;;;;;;;18.35;77.65;99934.63;4999901;28;20204;-74
2021/07/31 05:33:34;;;;;;;5.40;3.10;;;;;;;18.41;74.55;99935.97;4999342;28;20204;-74
2021/07/31 05:36:07;;;;;;;5.23;2.77;;;;;;;18.51;73.73;99944.94;4997680;28;20217;-74
2021/07/31 05:38:34;;;;;;;4.30;2.27;;;;;;;18.63;73.16;99942.41;4999872;28;20264;-74
2021/07/31 05:41:00;;;;;;;2.30;2.10;;;;;;;18.70;72.11;99946.31;5002043;28;20209;-73
2021/07/31 05:43:26;;;;;;;4.73;2.57;;;;;;;18.76;73.07;99937.94;5000530;28;20212;-73
2021/07/31 05:45:53;;;;;;;3.37;2.03;;;;;;;18.83;71.82;99933.09;4995915;28;20193;-73
2021/07/31 05:48:19;;;;;;;3.53;2.10;;;;;;;18.94;70.68;99941.06;5002821;28;20240;-73
2021/07/31 05:50:47;;;;;;;2.27;1.77;;;;;;;19.02;69.92;99943.19;4976448;28;20212;-73
2021/07/31 05:53:13;;;;;;;2.57;2.17;;;;;;;19.10;68.85;99952.25;5006874;28;20200;-73
2021/07/31 05:55:39;;;;;;;3.37;2.17;;;;;;;19.13;68.82;99951.16;4998045;28;20201;-73
2021/07/31 05:58:06;;;;;;;2.87;2.20;;;;;;;19.21;69.26;99946.16;5003856;28;20750;-73
2021/07/31 06:00:32;;;;;;;3.00;2.30;;;;;;;19.30;68.78;99961.34;4998448;28;20701;-73
2021/07/31 06:03:00;;;;;;;3.03;2.20;;;;;;;19.36;68.73;99948.63;5006674;28;20298;-74
2021/07/31 06:05:27;;;;;;;3.30;2.40;;;;;;;19.41;69.04;99963.19;4983869;28;20248;-74
2021/07/31 06:07:54;;;;;;;2.43;2.20;;;;;;;19.47;67.90;99956.59;5007877;28;20205;-74
2021/07/31 06:10:21;;;;;;;2.33;2.13;;;;;;;19.49;67.56;99960.84;4998827;28;20191;-73
2021/07/31 06:12:47;;;;;;;2.77;2.23;;;;;;;19.54;68.21;99960.50;5004430;28;20291;-74
2021/07/31 06:15:13;;;;;;;3.13;2.03;;;;;;;19.60;67.41;99961.84;5001258;28;20577;-74
2021/07/31 06:17:40;;;;;;;3.07;2.00;;;;;;;19.65;67.84;99965.84;5003478;28;20300;-74
2021/07/31 06:20:08;;;;;;;2.10;1.80;;;;;;;19.65;66.35;99965.00;5001144;28;20208;-74
2021/07/31 06:22:34;;;;;;;3.30;1.93;;;;;;;19.69;66.20;99966.44;5003162;28;20208;-74
2021/07/31 06:25:02;;;;;;;4.03;2.03;;;;;;;19.77;65.69;99969.41;5002410;28;20420;-74
2021/07/31 06:27:28;;;;;;;2.47;1.63;;;;;;;19.79;65.28;99970.13;5000513;28;20204;-74
2021/07/31 06:29:55;;;;;;;1.90;1.50;;;;;;;19.90;64.75;99968.47;5000821;28;20221;-74
2021/07/31 06:32:21;;;;;;;1.90;1.47;;;;;;;19.98;64.25;99971.38;4999690;28;20308;-74
2021/07/31 06:34:47;;;;;;;2.30;1.80;;;;;;;20.05;64.36;99969.94;5003923;28;20224;-74
2021/07/31 06:37:14;;;;;;;3.43;1.57;;;;;;;20.05;63.29;99975.22;5002481;28;20264;-74
2021/07/31 06:39:40;;;;;;;1.80;1.60;;;;;;;20.12;64.06;99984.41;5005802;28;20239;-74
2021/07/31 06:42:08;;;;;;;2.93;1.60;;;;;;;20.10;63.35;99981.03;4998646;28;20282;-74
2021/07/31 06:44:34;;;;;;;2.07;1.50;;;;;;;20.20;63.38;99983.81;5006324;28;20200;-74
2021/07/31 06:47:01;;;;;;;2.50;1.80;;;;;;;20.24;62.89;99978.19;4998291;28;20233;-74
2021/07/31 06:49:27;;;;;;;3.53;1.97;;;;;;;20.31;62.88;99983.81;5018207;23;20236;-74
2021/07/31 06:51:53;;;;;;;2.30;1.50;;;;;;;20.38;62.22;99984.19;5002649;28;20738;-74
2021/07/31 06:54:20;;;;;;;1.87;1.47;;;;;;;20.43;61.72;99979.41;5010105;28;20511;-74
2021/07/31 06:56:47;;;;;;;1.70;1.50;;;;;;;20.54;61.01;99975.91;5004577;28;20228;-74
2021/07/31 06:59:14;;;;;;;2.33;1.60;;;;;;;20.70;62.05;99981.75;5008569;28;20259;-74
2021/07/31 07:01:41;;;;;;;2.03;1.50;;;;;;;20.90;61.32;99982.78;5000963;28;20291;-74
2021/07/31 07:04:07;;;;;;;2.87;1.57;;;;;;;20.91;59.58;99986.28;5002063;28;20592;-75
2021/07/31 07:06:33;;;;;;;1.90;1.60;;;;;;;20.82;59.85;99981.72;5002518;28;20275;-74
2021/07/31 07:09:00;;;;;;;1.77;1.30;;;;;;;20.76;60.82;99980.41;5005709;28;20236;-74
2021/07/31 07:11:26;;;;;;;2.10;1.60;;;;;;;20.80;60.21;99981.84;5004240;28;20244;-74
2021/07/31 07:13:52;;;;;;;2.57;1.57;;;;;;;20.94;59.89;99986.03;5005635;28;20901;-74
2021/07/31 07:16:20;;;;;;;2.27;1.63;;;;;;;21.13;59.34;99985.41;5004035;28;20252;-74
2021/07/31 07:18:46;;;;;;;3.67;2.10;;;;;;;21.37;59.75;99982.56;5005914;28;20702;-74
2021/07/31 07:21:13;;;;;;;5.43;1.50;;;;;;;21.40;61.50;99978.84;5004273;28;20574;-74
2021/07/31 07:23:39;;;;;;;3.93;1.80;;;;;;;21.60;59.91;99993.13;5002039;28;20679;-74
2021/07/31 07:26:09;;;;;;;3.30;1.60;;;;;;;21.53;58.80;99977.75;5004304;28;20212;-74
2021/07/31 07:28:36;;;;;;;1.90;1.63;;;;;;;21.72;60.37;99977.06;4999399;28;20225;-75
2021/07/31 07:31:03;;;;;;;3.20;1.80;;;;;;;21.97;60.31;99974.16;5007725;28;20207;-74
2021/07/31 07:33:31;;;;;;;2.40;1.90;;;;;;;22.19;58.60;99968.69;5002234;28;20208;-74
2021/07/31 07:35:57;;;;;;;2.60;1.87;;;;;;;22.45;58.83;99965.66;5003761;28;20219;-74
2021/07/31 07:38:24;;;;;;;2.30;1.90;;;;;;;22.54;58.64;99970.19;5004898;28;20702;-74
2021/07/31 07:40:50;;;;;;;2.23;1.50;;;;;;;22.56;58.57;99967.38;5003789;28;20743;-74
2021/07/31 07:43:17;;;;;;;5.23;2.13;;;;;;;22.35;57.99;99972.75;4999764;28;20209;-74
2021/07/31 07:45:45;;;;;;;3.20;2.05;;;;;;;22.41;57.94;99972.19;5003120;28;20213;-74
2021/07/31 07:48:11;;;;;;;2.72;1.92;;;;;;;22.13;56.60;99982.50;5003130;28;20205;-74
2021/07/31 07:50:39;;;;;;;3.37;2.23;;;;;;;21.97;57.95;99975.00;5005380;28;20212;-74
2021/07/31 07:53:05;;;;;;;3.30;2.05;;;;;;;22.11;58.60;99977.34;4999415;28;20209;-75
2021/07/31 07:55:32;;;;;;;2.03;1.70;;;;;;;22.16;57.23;99973.44;5005394;28;20679;-77
2021/07/31 07:57:58;;;;;;;1.90;1.80;;;;;;;22.33;57.89;99983.50;5001217;28;20229;-74
2021/07/31 08:00:24;;;;;;;2.92;1.58;;;;;;;22.49;56.94;99981.19;5005864;28;20619;-74
2021/07/31 08:02:51;;;;;;;2.97;1.77;;;;;;;22.28;57.66;99975.91;5000100;28;20209;-74
2021/07/31 08:05:17;;;;;;;2.47;1.67;;;;;;;22.45;56.37;99973.63;5019793;28;20267;-74
2021/07/31 08:07:45;;;;;;;2.03;1.80;;;;;;;22.64;55.75;99972.88;5001757;28;20196;-74
2021/07/31 08:10:13;;;;;;;2.83;1.60;;;;;;;22.76;54.68;99973.59;5003711;28;20596;-74
2021/07/31 08:12:39;;;;;;;2.30;1.80;;;;;;;22.95;55.07;99980.81;5003056;28;20636;-75
2021/07/31 08:15:06;;;;;;;1.50;1.33;;;;;;;22.71;55.07;99983.78;5003014;28;20215;-74
2021/07/31 08:17:32;;;;;;;1.60;1.47;;;;;;;22.86;54.31;99983.28;5002498;28;20224;-74
2021/07/31 08:19:59;;;;;;;2.78;1.40;;;;;;;22.94;52.49;99984.47;5007967;28;20259;-75
2021/07/31 08:22:26;;;;;;;3.65;1.60;;;;;;;22.83;53.01;99980.06;5004822;28;20212;-74
2021/07/31 08:24:53;;;;;;;4.68;1.50;;;;;;;22.93;54.45;99975.63;5002222;28;20548;-74
2021/07/31 08:27:20;;;;;;;1.95;1.40;;;;;;;22.96;53.83;99977.19;5006317;28;20210;-74
2021/07/31 08:29:46;;;;;;;2.00;1.27;;;;;;;22.98;52.19;99970.75;5003084;28;20232;-74
2021/07/31 08:32:12;;;;;;;1.58;1.23;;;;;;;23.13;51.65;99973.03;5001763;28;20210;-74
2021/07/31 08:34:39;;;;;;;3.65;1.48;;;;;;;23.16;51.06;99972.78;5001675;28;20709;-74
2021/07/31 08:37:05;;;;;;;2.83;1.50;;;;;;;23.41;51.58;99953.66;5003614;28;20212;-74
2021/07/31 08:39:31;;;;;;;1.75;1.10;;;;;;;23.44;50.60;99963.16;5000522;28;20224;-74
2021/07/31 08:41:59;;;;;;;3.35;1.50;;;;;;;23.54;50.03;99960.50;5000694;28;20200;-75
2021/07/31 08:44:26;;;;;;;1.63;1.20;;;;;;;23.49;50.78;99955.59;4999804;28;20590;-74
2021/07/31 08:46:53;;;;;;;1.25;1.15;;;;;;;23.48;49.40;99956.56;5003884;28;20193;-74
2021/07/31 08:49:20;;;;;;;1.60;1.10;;;;;;;23.57;48.71;99953.09;5001317;28;20228;-74
2021/07/31 08:51:48;;;;;;;1.10;0.85;;;;;;;23.69;48.89;99952.94;5003147;28;20216;-74
2021/07/31 08:54:14;;;;;;;2.13;1.30;;;;;;;24.00;47.98;99950.97;4997321;28;20204;-74
2021/07/31 08:56:42;;;;;;;3.22;1.20;;;;;;;23.92;46.62;99953.50;5003039;28;20212;-74
2021/07/31 08:59:10;;;;;;;1.95;1.00;;;;;;;23.94;46.95;99943.53;4999215;28;20229;-74
2021/07/31 09:01:36;;;;;;;1.90;1.10;;;;;;;24.17;46.84;99954.72;5001185;28;20525;-74
2021/07/31 09:04:11;;;;;;;1.10;1.00;;;;;;;24.11;47.77;99950.78;4998990;28;20205;-74
2021/07/31 09:06:38;;;;;;;1.45;0.95;;;;;;;24.00;45.36;99946.47;5005334;28;20208;-74
2021/07/31 09:09:04;;;;;;;1.83;1.00;;;;;;;23.99;46.37;99947.47;5000324;28;20731;-74
2021/07/31 09:11:32;;;;;;;2.03;1.10;;;;;;;23.99;46.96;99938.63;5000775;28;20213;-74
2021/07/31 09:14:10;;;;;;;3.65;1.10;;;;;;;23.92;47.36;99937.53;5005195;28;20684;-74
2021/07/31 09:16:38;;;;;;;2.30;1.10;;;;;;;23.87;46.20;99939.75;5002598;28;20212;-74
2021/07/31 09:19:05;;;;;;;1.95;0.80;;;;;;;23.57;44.18;99946.91;5003694;28;20231;-74
2021/07/31 09:21:32;;;;;;;1.35;0.80;;;;;;;23.69;45.65;99947.59;4998214;28;20686;-74
2021/07/31 09:23:58;;;;;;;1.98;0.80;;;;;;;23.86;45.89;99940.78;4998660;28;20203;-74
2021/07/31 09:26:27;;;;;;;1.17;1.00;;;;;;;23.95;45.38;99939.91;5000939;28;20204;-75
2021/07/31 09:29:00;;;;;;;2.03;1.20;;;;;;;24.24;47.08;99928.31;5006009;28;20225;-74
2021/07/31 09:31:28;;;;;;;2.97;2.05;;;;;;;24.42;46.02;99945.25;5004411;28;20306;-74
2021/07/31 09:33:58;;;;;;;4.13;2.47;;;;;;;24.48;44.84;99944.63;5005023;28;20323;-74
2021/07/31 09:36:34;;;;;;;1.15;1.00;;;;;;;24.30;43.22;99954.41;5003347;28;20287;-74
2021/07/31 09:39:00;;;;;;;1.70;1.00;;;;;;;24.37;46.07;99943.00;4999522;28;20290;-74
2021/07/31 09:41:32;;;;;;;3.22;1.10;;;;;;;24.30;42.71;99949.06;5004656;28;20197;-74
2021/07/31 09:44:20;;;;;;;1.25;1.00;;;;;;;24.50;42.81;99944.50;5005873;28;20586;-74
2021/07/31 09:46:49;;;;;;;1.58;1.02;;;;;;;24.64;44.97;99940.53;5000113;28;20828;-74
2021/07/31 09:49:19;;;;;;;3.00;1.13;;;;;;;24.73;43.89;99942.31;5005228;28;20231;-74
2021/07/31 09:51:47;;;;;;;0.90;0.90;;;;;;;24.85;46.22;99937.63;5004708;28;20212;-74
2021/07/31 09:54:16;;;;;;;1.40;1.05;;;;;;;24.72;42.81;99944.16;5000800;28;20204;-74
2021/07/31 09:56:46;;;;;;;1.20;1.10;;;;;;;24.72;45.13;99940.66;5002555;28;20476;-74
2021/07/31 09:59:14;;;;;;;2.20;1.10;;;;;;;24.53;42.88;99931.75;5003289;28;20235;-74
2021/07/31 10:01:44;;;;;;;1.25;0.90;;;;;;;24.65;43.75;99935.06;5002282;28;20211;-74
2021/07/31 10:04:12;;;;;;;1.20;1.05;;;;;;;25.04;45.12;99934.84;5004236;28;20216;-74
2021/07/31 10:06:39;;;;;;;1.90;1.10;;;;;;;24.60;43.82;99940.00;5000777;28;20204;-74
2021/07/31 10:09:07;;;;;;;2.15;1.20;;;;;;;24.34;43.57;99931.78;5002885;28;20231;-74
2021/07/31 10:11:34;;;;;;;1.67;1.13;;;;;;;24.19;43.92;99931.44;5001424;28;20213;-74
2021/07/31 10:14:02;;;;;;;1.75;1.10;;;;;;;24.43;43.78;99930.09;5004157;28;20488;-74
2021/07/31 10:16:30;;;;;;;1.92;1.05;;;;;;;24.29;43.24;99929.59;5007319;28;20207;-74
2021/07/31 10:18:58;;;;;;;1.40;0.90;;;;;;;24.41;44.89;99916.91;5002037;28;20271;-74
2021/07/31 10:21:27;;;;;;;1.63;1.13;;;;;;;24.48;44.19;99922.50;5006007;28;20272;-74
2021/07/31 10:23:58;;;;;;;1.48;1.13;;;;;;;24.34;42.91;99918.47;5002067;28;20761;-74
2021/07/31 10:26:25;;;;;;;1.38;1.08;;;;;;;24.51;43.77;99931.03;5008762;28;20209;-74
2021/07/31 10:28:52;;;;;;;1.33;1.05;;;;;;;24.65;43.80;99932.41;5002187;28;20217;-74
2021/07/31 10:31:28;;;;;;;2.10;1.20;;;;;;;24.73;44.09;99932.50;5007348;28;20849;-76
2021/07/31 10:33:55;;;;;;;1.23;1.00;;;;;;;24.75;44.00;99933.19;5000417;28;20213;-74
2021/07/31 10:36:31;;;;;;;1.85;1.17;;;;;;;24.76;42.87;99931.38;5002265;28;20223;-74
2021/07/31 10:38:58;;;;;;;1.20;1.10;;;;;;;24.93;43.84;99916.41;5005614;28;20234;-74
2021/07/31 10:41:55;;;;;;;2.15;0.93;;;;;;;25.14;45.38;99916.13;5004062;28;20212;-74
2021/07/31 10:44:22;;;;;;;1.73;1.33;;;;;;;24.92;43.30;99917.38;4923020;29;20241;-74
2021/07/31 10:46:48;;;;;;;1.73;1.13;;;;;;;24.58;43.72;99923.31;4987041;28;20209;-74
2021/07/31 10:49:36;;;;;;;1.08;0.90;;;;;;;24.63;43.73;99920.22;5003964;28;20296;-74
2021/07/31 10:52:04;;;;;;;2.10;1.10;;;;;;;24.70;42.03;99937.31;5002591;28;20554;-74
2021/07/31 10:55:00;;;;;;;1.10;1.00;;;;;;;24.71;42.85;99939.81;5006532;28;20479;-74
2021/07/31 10:58:04;;;;;;;1.98;1.25;;;;;;;24.67;43.11;99932.25;5005183;28;20317;-74
2021/07/31 11:00:32;;;;;;;1.95;1.20;;;;;;;24.84;44.37;99933.31;5002677;28;20359;-74
2021/07/31 11:02:59;;;;;;;2.65;1.20;;;;;;;25.02;42.61;99934.16;5008746;28;20196;-74
2021/07/31 11:05:26;;;;;;;1.13;1.00;;;;;;;25.26;43.78;99927.44;5003161;28;20262;-74
2021/07/31 11:08:03;;;;;;;1.58;0.90;;;;;;;25.30;41.87;99936.81;5006216;28;20196;-74
2021/07/31 11:10:39;;;;;;;2.17;0.90;;;;;;;25.40;41.37;99929.56;5001363;28;20305;-74
2021/07/31 11:13:06;;;;;;;2.67;0.80;;;;;;;25.60;41.58;99927.56;5008080;28;20303;-74
2021/07/31 11:15:32;;;;;;;1.88;0.90;;;;;;;25.76;40.93;99928.69;5002930;28;20539;-74
2021/07/31 11:18:00;;;;;;;1.77;1.00;;;;;;;25.74;41.26;99944.03;5003171;28;20312;-74
2021/07/31 11:20:33;;;;;;;2.70;1.20;;;;;;;25.71;40.31;99937.16;5003378;28;20232;-74
2021/07/31 11:23:08;;;;;;;1.85;0.90;;;;;;;25.66;41.12;99934.97;5003124;28;20213;-74
2021/07/31 11:25:36;;;;;;;1.23;1.00;;;;;;;25.67;40.66;99938.47;5016272;28;20204;-74
2021/07/31 11:28:08;;;;;;;1.25;0.98;;;;;;;25.66;43.06;99934.09;5002346;28;20192;-74
2021/07/31 11:30:36;;;;;;;2.08;0.98;;;;;;;25.68;39.98;99930.31;5002722;28;20274;-74
2021/07/31 11:33:23;;;;;;;2.45;1.27;;;;;;;25.27;40.05;99939.78;5001778;28;20227;-75
2021/07/31 11:35:50;;;;;;;1.40;1.02;;;;;;;25.36;40.76;99941.53;5007960;28;20296;-74
2021/07/31 11:38:29;;;;;;;1.10;1.00;;;;;;;25.44;39.56;99933.59;5002216;28;20226;-74